Time;durP1;ratioP1;P1;durP2;ratioP2;P2;SDS_P1;SDS_P2;PMS_P1;PMS_P2;Temp;Humidity;BMP_temperature;BMP_pressure;BME280_temperature;BME280_humidity;BME280_pressure;Samples;Min_cycle;Max_cycle;Signal;HPM_P1;HPM_P2
2022/06/03 00:10:06;;;;;;;4.37;2.03;;;;;;;18.53;59.31;100920.91;18493625;32;20097;-67
2022/06/03 00:20:17;;;;;;;4.12;1.90;;;;;;;18.44;58.51;100917.63;18492539;32;20457;-66
2022/06/03 00:30:43;;;;;;;4.03;1.80;;;;;;;18.81;57.17;100917.50;18493756;32;20093;-67
2022/06/03 00:40:59;;;;;;;3.42;2.20;;;;;;;19.41;56.57;100921.06;18492095;32;20182;-66
2022/06/03 00:51:32;;;;;;;4.57;2.53;;;;;;;18.43;58.89;100942.31;18491058;32;20111;-67
2022/06/03 01:01:43;;;;;;;3.25;1.95;;;;;;;17.15;62.80;100959.34;18495909;32;20093;-66
2022/06/03 01:12:06;;;;;;;4.18;2.40;;;;;;;17.52;61.13;100950.62;18500145;32;20090;-67
2022/06/03 01:22:35;;;;;;;2.87;1.65;;;;;;;18.21;58.86;100935.84;18500004;32;20718;-67
2022/06/03 01:33:26;;;;;;;3.72;2.00;;;;;;;17.62;60.94;100936.31;18499576;32;20114;-67
2022/06/03 01:43:58;;;;;;;4.90;2.60;;;;;;;17.83;60.42;100955.22;18233726;32;20137;-66
2022/06/03 01:54:29;;;;;;;4.53;2.03;;;;;;;18.44;58.34;100961.66;18233200;32;20205;-67
2022/06/03 02:04:44;;;;;;;5.73;2.47;;;;;;;17.25;62.98;100974.06;18046199;32;20409;-66
2022/06/03 02:15:14;;;;;;;3.25;1.77;;;;;;;17.44;62.57;100982.50;18144982;32;20181;-67
2022/06/03 02:25:49;;;;;;;3.70;2.53;;;;;;;17.67;61.84;100989.00;18296030;32;20180;-67
2022/06/03 02:36:07;;;;;;;2.90;1.87;;;;;;;17.65;61.76;100997.91;18359530;32;20097;-67
2022/06/03 02:46:52;;;;;;;3.58;1.92;;;;;;;17.65;62.19;101006.66;18497722;32;20142;-67
2022/06/03 02:57:21;;;;;;;2.78;2.03;;;;;;;18.32;60.53;100989.31;18497160;32;20157;-67
2022/06/03 03:07:59;;;;;;;4.95;2.42;;;;;;;17.78;62.85;101003.75;18496908;32;20107;-67
2022/06/03 03:18:24;;;;;;;5.43;2.12;;;;;;;17.59;63.23;101007.69;18230863;32;20118;-66
2022/06/03 03:29:05;;;;;;;4.40;2.60;;;;;;;18.02;61.56;101007.59;18229745;32;20144;-67
2022/06/03 03:39:42;;;;;;;4.55;2.40;;;;;;;17.15;65.24;101028.81;18043253;32;20184;-67
2022/06/03 03:50:22;;;;;;;3.30;1.87;;;;;;;18.32;63.21;101028.06;18155480;32;76577;-67
2022/06/03 04:01:17;;;;;;;3.28;2.10;;;;;;;18.95;61.59;101022.94;18494492;32;20088;-66
2022/06/03 04:11:45;;;;;;;3.53;2.10;;;;;;;19.50;60.85;101025.81;18291362;32;20135;-67
2022/06/03 04:22:27;;;;;;;6.68;2.12;;;;;;;21.20;54.48;101023.81;18291256;32;20149;-67
2022/06/03 04:43:15;;;;;;;;;;;;;;;24.60;45.54;101014.47;18606112;31;131892;-66
2022/06/03 04:54:03;;;;;;;3.63;1.93;;;;;;;24.98;47.01;101029.44;18406757;32;20000;-66
2022/06/03 05:04:44;;;;;;;4.18;1.95;;;;;;;24.51;46.72;101032.66;18406560;32;20175;-66
2022/06/03 05:15:21;;;;;;;4.10;2.00;;;;;;;25.53;45.10;101030.97;18405084;32;20121;-66
2022/06/03 05:25:53;;;;;;;4.97;2.00;;;;;;;24.79;42.65;101049.09;18480571;31;20143;-67
2022/06/03 05:36:29;;;;;;;3.65;1.77;;;;;;;25.43;41.22;101059.12;18597997;32;20118;-66
2022/06/03 05:46:41;;;;;;;3.35;2.00;;;;;;;24.82;42.95;101066.75;18595058;32;20111;-66
2022/06/03 05:56:57;;;;;;;5.18;2.30;;;;;;;24.74;43.19;101069.81;18559816;32;20093;-66
2022/06/03 06:07:12;;;;;;;3.30;1.77;;;;;;;24.84;42.57;101075.53;18560702;32;20400;-66
2022/06/03 06:17:38;;;;;;;5.72;2.10;;;;;;;25.70;40.41;101075.47;18560178;32;20436;-66
2022/06/03 06:28:02;;;;;;;4.05;1.98;;;;;;;25.28;43.31;101072.34;18562778;32;20076;-67
2022/06/03 06:38:10;;;;;;;4.30;1.98;;;;;;;26.10;39.92;101061.66;18561959;32;20089;-66
2022/06/03 06:48:23;;;;;;;3.00;1.98;;;;;;;25.15;42.35;101063.28;18562779;32;20100;-66
2022/06/03 06:58:43;;;;;;;8.38;2.78;;;;;;;26.56;39.73;101054.59;18558432;32;20093;-66
2022/06/03 07:08:51;;;;;;;3.10;1.75;;;;;;;26.56;40.43;101052.75;18560773;31;20114;-67
2022/06/03 07:29:25;;;;;;;3.00;1.58;;;;;;;29.48;33.13;101034.81;18547497;32;20077;-67
2022/06/03 07:39:43;;;;;;;4.00;1.98;;;;;;;30.54;31.42;101014.44;18559246;32;20119;-67
2022/06/03 07:49:55;;;;;;;3.83;1.67;;;;;;;30.60;32.43;101019.31;18522355;32;20148;-67
2022/06/03 08:00:00;;;;;;;4.20;1.70;;;;;;;31.00;31.19;101019.87;18539775;32;20103;-66
2022/06/03 08:20:29;;;;;;;3.35;1.75;;;;;;;30.52;29.61;101004.75;18365702;32;20120;-66
2022/06/03 08:30:34;;;;;;;5.12;1.90;;;;;;;31.68;27.30;101003.66;18395368;32;20096;-66
2022/06/03 08:40:45;;;;;;;2.95;1.52;;;;;;;30.27;29.03;100996.72;18494097;32;20116;-66
2022/06/03 08:50:57;;;;;;;3.30;1.60;;;;;;;30.22;28.66;101001.59;18495150;32;20455;-66
2022/06/03 09:01:12;;;;;;;2.90;1.60;;;;;;;31.53;25.09;100988.72;18510046;32;20361;-66
2022/06/03 09:11:21;;;;;;;3.03;1.52;;;;;;;31.23;26.17;100982.13;18555241;32;20112;-66
2022/06/03 09:21:26;;;;;;;2.65;1.45;;;;;;;32.66;26.72;100973.03;18556498;32;20096;-66
2022/06/03 09:31:31;;;;;;;3.25;1.37;;;;;;;32.61;24.73;100973.41;18562660;32;20096;-67
2022/06/03 09:41:37;;;;;;;3.17;1.73;;;;;;;33.11;23.92;100970.97;18564274;32;20131;-66
2022/06/03 09:51:59;;;;;;;2.33;1.48;;;;;;;31.23;29.26;100979.44;18559177;32;20408;-67
2022/06/03 10:02:03;;;;;;;1.98;1.35;;;;;;;30.94;27.62;100971.88;18563422;32;20150;-66
2022/06/03 10:22:30;;;;;;;2.08;1.40;;;;;;;31.92;24.99;100974.75;18562519;31;20130;-67
2022/06/03 10:32:36;;;;;;;2.33;1.37;;;;;;;33.21;22.83;100969.13;18561686;32;20100;-68
2022/06/03 10:42:40;;;;;;;2.47;1.48;;;;;;;31.80;28.80;100963.13;18562123;32;20096;-67
2022/06/03 11:03:23;;;;;;;3.17;1.27;;;;;;;32.66;26.00;100938.72;18561254;32;20120;-66
2022/06/03 11:13:30;;;;;;;2.30;1.33;;;;;;;33.04;24.40;100930.94;18562420;31;20101;-67
2022/06/03 11:23:41;;;;;;;2.25;1.30;;;;;;;32.94;26.27;100924.66;18561877;32;20084;-67
2022/06/03 11:33:50;;;;;;;1.75;1.17;;;;;;;34.15;21.98;100899.25;18560210;32;20345;-67
2022/06/03 11:43:57;;;;;;;1.93;1.10;;;;;;;32.61;25.88;100907.69;18560751;31;20116;-67
2022/06/03 11:54:24;;;;;;;4.30;1.50;;;;;;;33.80;23.58;100888.03;18561226;32;20349;-67
2022/06/03 12:04:47;;;;;;;3.17;1.48;;;;;;;32.99;24.65;100871.00;18560680;32;20127;-66
2022/06/03 12:14:57;;;;;;;2.45;1.30;;;;;;;32.77;23.62;100845.88;18559944;32;20440;-67
2022/06/03 12:25:00;;;;;;;1.67;1.20;;;;;;;34.03;22.79;100839.84;18558796;32;20152;-67
2022/06/03 12:35:40;;;;;;;1.37;1.10;;;;;;;33.74;23.02;100818.22;18558618;32;20093;-66
2022/06/03 12:45:58;;;;;;;1.58;1.23;;;;;;;33.58;22.73;100816.97;18557380;31;20164;-66
2022/06/03 12:56:04;;;;;;;1.73;1.10;;;;;;;32.71;25.07;100805.88;18556523;32;20107;-66
2022/06/03 13:06:09;;;;;;;1.87;1.20;;;;;;;33.45;23.75;100787.47;18566644;32;20105;-65
2022/06/03 13:16:27;;;;;;;1.65;1.30;;;;;;;33.61;23.38;100786.03;18565387;32;20072;-66
2022/06/03 13:27:05;;;;;;;1.73;1.20;;;;;;;34.79;22.17;100763.03;18564829;32;20352;-67
2022/06/03 13:37:32;;;;;;;2.62;1.20;;;;;;;34.15;21.60;100766.53;18565523;32;20097;-66
2022/06/03 13:47:48;;;;;;;1.95;1.08;;;;;;;33.76;22.67;100753.94;18564460;32;20088;-65
2022/06/03 13:57:53;;;;;;;2.75;1.35;;;;;;;33.69;22.58;100736.62;18564460;32;20084;-66
2022/06/03 14:08:01;;;;;;;1.45;1.00;;;;;;;34.05;22.67;100728.66;18564094;32;20092;-66
2022/06/03 14:18:05;;;;;;;7.57;1.80;;;;;;;34.15;21.78;100724.06;18564011;32;20361;-67
2022/06/03 14:28:15;;;;;;;2.95;1.58;;;;;;;33.68;22.66;100710.56;18561805;32;20112;-67
2022/06/03 14:38:26;;;;;;;2.15;1.30;;;;;;;33.16;23.98;100709.94;18563935;32;20100;-67
2022/06/03 14:48:44;;;;;;;2.17;1.30;;;;;;;33.97;22.09;100693.34;18563813;32;20140;-66
2022/06/03 14:58:50;;;;;;;2.35;1.62;;;;;;;33.69;23.59;100679.78;18561679;32;20151;-67
2022/06/03 15:09:00;;;;;;;3.97;1.52;;;;;;;33.58;22.57;100676.25;18563219;32;20161;-66
2022/06/03 15:19:04;;;;;;;2.95;1.50;;;;;;;32.98;23.93;100650.31;18560409;32;20171;-66
2022/06/03 15:29:13;;;;;;;2.17;1.30;;;;;;;33.67;22.25;100625.78;18562368;32;20096;-67
2022/06/03 15:39:21;;;;;;;1.92;1.20;;;;;;;33.38;24.71;100625.88;18561879;32;20136;-67
2022/06/03 15:49:27;;;;;;;1.65;1.37;;;;;;;32.76;23.65;100644.19;18561945;32;20089;-66
2022/06/03 15:59:40;;;;;;;1.98;1.00;;;;;;;32.56;23.88;100645.19;18561233;32;20111;-66
2022/06/03 16:09:48;;;;;;;9.52;1.92;;;;;;;32.89;23.46;100646.59;18561209;32;20133;-67
2022/06/03 16:20:11;;;;;;;1.73;1.20;;;;;;;32.67;24.23;100626.13;18560812;32;20095;-67
2022/06/03 16:30:21;;;;;;;2.25;1.40;;;;;;;32.64;24.53;100627.25;18559789;32;20158;-67
2022/06/03 16:40:34;;;;;;;2.33;1.30;;;;;;;31.88;25.63;100641.31;18559298;32;20097;-66
2022/06/03 16:50:42;;;;;;;4.75;1.20;;;;;;;32.07;26.99;100645.94;18559104;32;20454;-66
2022/06/03 17:00:55;;;;;;;3.28;1.23;;;;;;;31.94;27.07;100641.63;18558285;32;20092;-67
2022/06/03 17:11:03;;;;;;;7.80;1.73;;;;;;;31.59;28.12;100623.16;18557905;32;20115;-66
2022/06/03 17:21:17;;;;;;;2.45;1.12;;;;;;;31.42;29.21;100625.50;18557169;32;20096;-67
2022/06/03 17:31:28;;;;;;;1.70;1.10;;;;;;;31.33;29.45;100615.50;18556407;32;20131;-68
2022/06/03 17:41:40;;;;;;;3.40;1.52;;;;;;;31.00;30.05;100610.19;18556249;31;20437;-68
2022/06/03 18:02:41;;;;;;;1.90;1.40;;;;;;;29.75;36.51;100614.94;18564316;32;20111;-66
2022/06/03 18:12:52;;;;;;;;;;;;;;;29.19;38.85;100619.28;18561823;32;20088;-66
2022/06/03 18:23:10;;;;;;;3.97;1.40;;;;;;;28.45;41.15;100622.19;18500476;32;19975;-66
2022/06/03 18:33:20;;;;;;;3.28;1.65;;;;;;;28.14;40.60;100624.44;18496669;32;20111;-66
2022/06/03 18:43:35;;;;;;;3.40;1.58;;;;;;;27.45;41.91;100620.31;18497729;32;20105;-66
2022/06/03 18:53:55;;;;;;;4.75;1.83;;;;;;;27.20;43.64;100627.41;18496259;32;20156;-67
2022/06/03 19:04:19;;;;;;;2.95;1.65;;;;;;;26.49;46.76;100643.72;18497102;32;20120;-66
2022/06/03 19:15:01;;;;;;;3.42;1.83;;;;;;;26.77;43.18;100653.44;18495571;32;20088;-66
2022/06/03 19:25:25;;;;;;;4.05;1.77;;;;;;;26.24;45.49;100656.88;18496876;32;20089;-66
2022/06/03 19:35:29;;;;;;;2.95;1.55;;;;;;;26.14;45.69;100671.78;18495928;32;20093;-66
2022/06/03 19:45:45;;;;;;;3.72;2.10;;;;;;;25.64;47.92;100677.50;18494701;32;20093;-66
2022/06/03 19:55:53;;;;;;;3.22;1.90;;;;;;;24.84;50.74;100672.41;18495426;32;20170;-66
2022/06/03 20:06:06;;;;;;;4.12;1.90;;;;;;;25.05;49.78;100662.28;18494867;32;20178;-66
2022/06/03 20:16:16;;;;;;;4.15;1.83;;;;;;;24.60;51.70;100663.03;18493800;32;20114;-66
2022/06/03 20:26:24;;;;;;;3.33;1.93;;;;;;;24.14;52.74;100647.81;18493582;32;20088;-66
2022/06/03 20:36:41;;;;;;;4.28;1.90;;;;;;;24.60;50.73;100651.50;18492461;32;20188;-66
2022/06/03 20:46:51;;;;;;;4.80;2.30;;;;;;;24.07;53.15;100644.66;18492629;32;20433;-65
2022/06/03 20:57:00;;;;;;;4.83;2.57;;;;;;;23.61;52.98;100639.94;18494013;32;20084;-66
2022/06/03 21:17:37;;;;;;;4.87;2.47;;;;;;;23.62;54.10;100636.38;18355639;32;20355;-66
2022/06/03 21:27:42;;;;;;;5.43;2.60;;;;;;;23.43;54.49;100649.78;18362194;32;20121;-66
2022/06/03 21:37:56;;;;;;;4.95;2.30;;;;;;;23.27;55.41;100649.72;18362798;32;20121;-66
2022/06/03 21:48:08;;;;;;;6.22;2.53;;;;;;;23.40;55.08;100640.16;18409249;32;20092;-66
2022/06/03 21:58:42;;;;;;;5.28;2.60;;;;;;;23.02;56.48;100650.94;18500137;32;20103;-66
2022/06/03 22:08:47;;;;;;;6.07;2.70;;;;;;;23.19;55.99;100649.25;18498365;32;20131;-66
2022/06/03 22:18:50;;;;;;;6.75;2.80;;;;;;;22.91;57.13;100646.19;18499231;32;20127;-66
2022/06/03 22:29:03;;;;;;;7.45;2.97;;;;;;;22.56;58.32;100644.31;18498755;32;20428;-66
2022/06/03 22:39:13;;;;;;;7.20;3.05;;;;;;;22.14;59.32;100659.56;18498956;32;20450;-65
2022/06/03 22:49:19;;;;;;;5.13;2.53;;;;;;;22.57;58.04;100654.03;18498780;32;20108;-66
2022/06/03 22:59:23;;;;;;;5.72;2.67;;;;;;;22.23;59.03;100650.31;18499550;32;20103;-65
2022/06/03 23:09:28;;;;;;;4.15;2.00;;;;;;;22.17;57.24;100661.22;18498148;32;20112;-65
2022/06/03 23:19:31;;;;;;;5.72;2.12;;;;;;;22.77;54.97;100673.50;18497856;32;20440;-65
2022/06/03 23:29:36;;;;;;;3.85;1.85;;;;;;;23.54;53.15;100651.91;18497708;32;20106;-65
2022/06/03 23:39:39;;;;;;;4.30;2.00;;;;;;;24.06;53.36;100628.72;18496009;32;20109;-66
2022/06/03 23:49:44;;;;;;;4.45;2.40;;;;;;;24.29;52.91;100602.59;18496956;32;20428;-66
2022/06/03 23:59:47;;;;;;;4.45;2.20;;;;;;;23.93;54.08;100593.84;18496433;32;20100;-66
